Leander, TX

2:04 AM CST on February 22, 2017 (GMT -0600)
Lago Vista

Weather History for KRYW - November, 2012

Change the Weather History Date:

Sunday, November 25, 2012

  Actual Average (KGTU) Record (KGTU)
Temperature  
Mean Temperature 63 °F -  
Max Temperature 75 °F 64 °F 78 °F (1998)
Min Temperature 51 °F 44 °F 30 °F (2008)
Degree Days  
Heating Degree Days 2    
Growing Degree Days 13 (Base 50)    
Moisture  
Dew Point 43 °F    
Average Humidity 52    
Maximum Humidity 88    
Minimum Humidity 30    
Precipitation  
Precipitation 0.00 in - - ()
Sea Level Pressure  
Sea Level Pressure 30.02 in    
Wind  
Wind Speed 10 mph (South)    
Max Wind Speed 16 mph    
Max Gust Speed 25 mph    
Visibility 10 miles    
Events      
Averages and records for this station are not official NWS values.
T = Trace of Precipitation, MM = Missing Value Source: NWS Daily Summary

Daily Weather History Graph

Daily Weather History Graph

Search for Another Location

Airport or City:

Trip Planner

Search our weather history database for the weather conditions in past years. The results will help you decide how hot, cold, wet, or windy it might be!

Date:

Astronomy

Nov. 25, 2012 Rise Set
Actual Time 7:06 AM CST 5:31 PM CST
Civil Twilight 6:40 AM CST 5:57 PM CST
Nautical Twilight 6:11 AM CST 6:26 PM CST
Astronomical Twilight 5:42 AM CST 6:55 PM CST
Moon 3:42 PM CST (11/25) 4:29 AM CST (11/25)
Length of Visible Light 11h 16m
Length of Day
10h 24m
Waxing Gibbous, 93% of the Moon is Illuminated
Nov 25
Waxing Gibbous
Nov 28
Full
Dec 6
Last Quarter
Dec 13
New
Dec 19
First Quarter

Hourly Weather History & Observations

Time (CST) Temp. Dew Point Humidity Pressure Visibility Wind Dir Wind Speed Gust Speed Precip Events Conditions
12:15 AM 51.8 °F 23.0 °F 33% 30.14 in 10.0 mi South 9.2 mph - N/A   Clear
12:35 AM 51.8 °F 23.0 °F 33% 30.13 in 10.0 mi South 8.1 mph - N/A   Clear
12:55 AM 53.6 °F 23.0 °F 30% 30.13 in 10.0 mi South 11.5 mph 17.3 mph N/A   Clear
1:15 AM 51.8 °F 24.8 °F 35% 30.12 in 10.0 mi South 9.2 mph - N/A   Clear
1:35 AM 53.6 °F 24.8 °F 33% 30.11 in 10.0 mi South 9.2 mph 16.1 mph N/A   Clear
1:55 AM 53.6 °F 24.8 °F 33% 30.11 in 10.0 mi South 9.2 mph 19.6 mph N/A   Clear
2:15 AM 53.6 °F 26.6 °F 35% 30.10 in 10.0 mi South 10.4 mph 19.6 mph N/A   Clear
2:35 AM 51.8 °F 26.6 °F 38% 30.10 in 10.0 mi South 8.1 mph 16.1 mph N/A   Clear
2:55 AM 51.8 °F 26.6 °F 38% 30.09 in 10.0 mi SSW 9.2 mph - N/A   Clear
3:15 AM 51.8 °F 26.6 °F 38% 30.09 in 10.0 mi SSW 16.1 mph - N/A   Clear
3:35 AM 53.6 °F 28.4 °F 38% 30.08 in 10.0 mi SSW 12.7 mph 18.4 mph N/A   Clear
3:55 AM 53.6 °F 30.2 °F 41% 30.07 in 10.0 mi SSW 12.7 mph 17.3 mph N/A   Clear
4:15 AM 53.6 °F 32.0 °F 44% 30.07 in 10.0 mi SSW 10.4 mph - N/A   Clear
4:35 AM 53.6 °F 32.0 °F 44% 30.06 in 10.0 mi SSW 8.1 mph - N/A   Clear
4:55 AM 51.8 °F 32.0 °F 47% 30.06 in 10.0 mi South 6.9 mph - N/A   Clear
5:15 AM 51.8 °F 32.0 °F 47% 30.06 in 10.0 mi South 6.9 mph - N/A   Clear
5:35 AM 51.8 °F 32.0 °F 47% 30.05 in 10.0 mi South 8.1 mph - N/A   Clear
5:55 AM 51.8 °F 32.0 °F 47% 30.06 in 10.0 mi South 8.1 mph - N/A   Clear
6:15 AM 51.8 °F 32.0 °F 47% 30.06 in 10.0 mi South 8.1 mph - N/A   Clear
6:35 AM 51.8 °F 32.0 °F 47% 30.06 in 10.0 mi South 6.9 mph - N/A   Clear
6:55 AM 51.8 °F 33.8 °F 50% 30.06 in 10.0 mi South 6.9 mph - N/A   Clear
7:15 AM 51.8 °F 33.8 °F 50% 30.06 in 10.0 mi South 5.8 mph - N/A   Clear
7:55 AM 51.8 °F 35.6 °F 54% 30.07 in 10.0 mi South 4.6 mph - N/A   Clear
8:15 AM 53.6 °F 35.6 °F 51% 30.07 in 10.0 mi South 5.8 mph - N/A   Clear
8:35 AM 55.4 °F 35.6 °F 47% 30.08 in 10.0 mi South 6.9 mph - N/A   Clear
8:55 AM 55.4 °F 35.6 °F 47% 30.08 in 10.0 mi SSW 6.9 mph - N/A   Clear
9:15 AM 55.4 °F 37.4 °F 51% 30.08 in 10.0 mi SSW 6.9 mph - N/A   Clear
9:35 AM 59.0 °F 37.4 °F 45% 30.08 in 10.0 mi SSW 10.4 mph - N/A   Clear
9:55 AM 60.8 °F 39.2 °F 45% 30.08 in 10.0 mi South 8.1 mph - N/A   Clear
10:15 AM 62.6 °F 41.0 °F 45% 30.07 in 10.0 mi South 6.9 mph - N/A   Clear
10:35 AM 64.4 °F 42.8 °F 45% 30.07 in 10.0 mi SW 9.2 mph - N/A   Clear
10:55 AM 68.0 °F 44.6 °F 43% 30.06 in 10.0 mi South 10.4 mph - N/A   Clear
11:15 AM 68.0 °F 46.4 °F 46% 30.06 in 10.0 mi SSW 10.4 mph 16.1 mph N/A   Clear
11:35 AM 69.8 °F 48.2 °F 46% 30.05 in 10.0 mi South 10.4 mph 18.4 mph N/A   Clear
11:55 AM 69.8 °F 48.2 °F 46% 30.04 in 10.0 mi South 9.2 mph 18.4 mph N/A   Clear
12:15 PM 71.6 °F 48.2 °F 43% 30.02 in 10.0 mi South 11.5 mph 20.7 mph N/A   Clear
12:35 PM 71.6 °F 48.2 °F 43% 30.01 in 10.0 mi SSW 13.8 mph 19.6 mph N/A   Clear
12:55 PM 73.4 °F 50.0 °F 44% 30.00 in 10.0 mi South 11.5 mph 23.0 mph N/A   Clear
1:15 PM 73.4 °F 50.0 °F 44% 29.98 in 10.0 mi South 12.7 mph 21.9 mph N/A   Clear
1:35 PM 73.4 °F 50.0 °F 44% 29.98 in 10.0 mi South 12.7 mph 23.0 mph N/A   Clear
1:55 PM 73.4 °F 50.0 °F 44% 29.97 in 10.0 mi South 15.0 mph 20.7 mph N/A   Clear
2:15 PM 75.2 °F 50.0 °F 41% 29.96 in 10.0 mi South 11.5 mph 17.3 mph N/A   Clear
2:35 PM 73.4 °F 50.0 °F 44% 29.95 in 10.0 mi SSW 9.2 mph 24.2 mph N/A   Clear
2:55 PM 73.4 °F 50.0 °F 44% 29.95 in 10.0 mi South 11.5 mph 24.2 mph N/A   Clear
3:15 PM 73.4 °F 50.0 °F 44% 29.94 in 10.0 mi South 11.5 mph 25.3 mph N/A   Clear
3:35 PM 73.4 °F 50.0 °F 44% 29.94 in 10.0 mi South 13.8 mph 18.4 mph N/A   Clear
3:55 PM 73.4 °F 50.0 °F 44% 29.94 in 10.0 mi South 15.0 mph 19.6 mph N/A   Clear
4:15 PM 71.6 °F 50.0 °F 46% 29.94 in 10.0 mi South 10.4 mph 21.9 mph N/A   Clear
4:35 PM 71.6 °F 50.0 °F 46% 29.94 in 10.0 mi South 10.4 mph 18.4 mph N/A   Clear
4:55 PM 71.6 °F 50.0 °F 46% 29.94 in 10.0 mi South 10.4 mph 17.3 mph N/A   Clear
5:15 PM 69.8 °F 51.8 °F 53% 29.93 in 10.0 mi South 6.9 mph - N/A   Clear
5:55 PM 68.0 °F 51.8 °F 56% 29.93 in 10.0 mi South 5.8 mph - N/A   Clear
6:15 PM 68.0 °F 51.8 °F 56% 29.94 in 10.0 mi South 11.5 mph 16.1 mph N/A   Clear
6:35 PM 68.0 °F 53.6 °F 60% 29.94 in 10.0 mi South 13.8 mph 21.9 mph N/A   Clear
6:55 PM 68.0 °F 55.4 °F 64% 29.95 in 10.0 mi South 8.1 mph - N/A   Clear
7:15 PM 66.2 °F 55.4 °F 68% 29.95 in 10.0 mi South 8.1 mph - N/A   Clear
7:35 PM 64.4 °F 55.4 °F 73% 29.95 in 10.0 mi South 9.2 mph - N/A   Clear
7:55 PM 64.4 °F 55.4 °F 73% 29.96 in 10.0 mi South 9.2 mph 17.3 mph N/A   Clear
8:15 PM 64.4 °F 55.4 °F 73% 29.96 in 10.0 mi South 9.2 mph 17.3 mph N/A   Clear
8:35 PM 64.4 °F 55.4 °F 73% 29.96 in 10.0 mi South 11.5 mph 18.4 mph N/A   Clear
8:55 PM 64.4 °F 55.4 °F 73% 29.96 in 10.0 mi South 8.1 mph 19.6 mph N/A   Clear
9:15 PM 64.4 °F 55.4 °F 73% 29.97 in 10.0 mi South 8.1 mph - N/A   Clear
9:35 PM 64.4 °F 57.2 °F 77% 29.97 in 10.0 mi South 11.5 mph - N/A   Clear
9:55 PM 64.4 °F 57.2 °F 77% 29.98 in 10.0 mi SSW 6.9 mph - N/A   Clear
10:15 PM 64.4 °F 57.2 °F 77% 29.98 in 10.0 mi SSW 9.2 mph - N/A   Scattered Clouds
10:35 PM 64.4 °F 57.2 °F 77% 29.98 in 10.0 mi South 6.9 mph - N/A   Mostly Cloudy
10:55 PM 64.4 °F 57.2 °F 77% 29.98 in 10.0 mi South 9.2 mph - N/A   Overcast
11:15 PM 62.6 °F 57.2 °F 82% 29.97 in 10.0 mi South 9.2 mph 18.4 mph N/A   Mostly Cloudy
11:35 PM 62.6 °F 59.0 °F 88% 29.97 in 10.0 mi South 11.5 mph - N/A   Mostly Cloudy
11:55 PM 62.6 °F 59.0 °F 88% 29.97 in 10.0 mi South 11.5 mph - N/A   Overcast